Time;durP1;ratioP1;P1;durP2;ratioP2;P2;SDS_P1;SDS_P2;PMS_P1;PMS_P2;Temp;Humidity;BMP_temperature;BMP_pressure;BME280_temperature;BME280_humidity;BME280_pressure;Samples;Min_cycle;Max_cycle;Signal;HPM_P1;HPM_P2
2022/10/15 00:01:08;;;;;;;9.30;9.00;;;13.90;99.90;;;;;;5078672;28;20233;-80
2022/10/15 00:03:43;;;;;;;9.30;9.00;;;13.90;99.90;;;;;;5078765;28;20236;-80
2022/10/15 00:06:15;;;;;;;9.30;9.00;;;13.90;99.90;;;;;;5077774;28;20236;-79
2022/10/15 00:08:43;;;;;;;8.93;8.63;;;13.90;99.90;;;;;;5079485;28;20694;-80
2022/10/15 00:11:13;;;;;;;9.50;9.20;;;13.90;99.90;;;;;;5078594;28;20233;-81
2022/10/15 00:13:41;;;;;;;9.30;9.00;;;13.90;99.90;;;;;;5078660;28;20226;-80
2022/10/15 00:16:12;;;;;;;9.20;8.90;;;13.90;99.90;;;;;;5077410;28;20230;-80
2022/10/15 00:18:42;;;;;;;9.20;8.90;;;13.90;99.90;;;;;;5078772;28;20225;-80
2022/10/15 00:21:13;;;;;;;9.40;9.10;;;13.90;99.90;;;;;;5078744;28;20245;-80
2022/10/15 00:23:40;;;;;;;9.20;8.90;;;13.90;99.90;;;;;;5078678;28;20242;-80
2022/10/15 00:26:11;;;;;;;9.30;9.00;;;13.90;99.90;;;;;;5077622;28;20230;-80
2022/10/15 00:28:38;;;;;;;9.10;8.80;;;13.90;99.90;;;;;;5078508;28;20230;-80
2022/10/15 00:31:09;;;;;;;9.10;8.80;;;13.90;99.90;;;;;;5078497;28;20326;-80
2022/10/15 00:33:37;;;;;;;9.50;9.20;;;13.90;99.90;;;;;;5078067;28;20230;-80
2022/10/15 00:36:11;;;;;;;9.20;8.90;;;13.90;99.90;;;;;;5077646;28;20223;-80
2022/10/15 00:38:38;;;;;;;9.10;8.80;;;13.90;99.90;;;;;;5081882;28;20241;-80
2022/10/15 00:41:08;;;;;;;9.30;9.00;;;13.90;99.90;;;;;;5089292;28;20229;-81
2022/10/15 00:43:42;;;;;;;9.40;9.10;;;13.90;99.90;;;;;;5078746;28;20297;-80
2022/10/15 00:46:19;;;;;;;9.40;9.10;;;13.90;99.90;;;;;;5089457;28;20249;-80
2022/10/15 00:48:51;;;;;;;9.47;9.17;;;13.90;99.90;;;;;;5087271;28;20340;-80
2022/10/15 00:51:23;;;;;;;9.27;8.97;;;13.90;99.90;;;;;;5089710;28;20244;-80
2022/10/15 00:53:51;;;;;;;9.33;9.03;;;13.80;99.90;;;;;;5098968;28;20221;-80
2022/10/15 00:56:22;;;;;;;9.30;9.00;;;13.80;99.90;;;;;;5098131;28;20226;-81
2022/10/15 00:58:52;;;;;;;9.17;8.87;;;13.80;99.90;;;;;;5098542;28;20232;-78
2022/10/15 01:01:20;;;;;;;9.27;8.97;;;13.80;99.90;;;;;;5098635;28;20230;-78
2022/10/15 01:03:48;;;;;;;9.30;9.00;;;13.80;99.90;;;;;;5089485;28;20293;-78
2022/10/15 01:06:16;;;;;;;9.20;8.90;;;13.80;99.90;;;;;;5088439;28;20246;-77
2022/10/15 01:08:45;;;;;;;9.43;9.13;;;13.80;99.90;;;;;;5101838;28;20229;-77
2022/10/15 01:11:28;;;;;;;9.40;9.10;;;13.80;99.90;;;;;;5085372;28;20320;-80
2022/10/15 01:14:08;;;;;;;9.50;9.20;;;13.80;99.90;;;;;;5081773;28;20237;-80
2022/10/15 01:16:43;;;;;;;9.20;8.90;;;13.80;99.90;;;;;;5071822;28;20246;-79
2022/10/15 01:19:28;;;;;;;9.40;9.10;;;13.80;99.90;;;;;;5087239;28;20332;-79
2022/10/15 01:22:05;;;;;;;9.33;9.03;;;13.80;99.90;;;;;;5088836;28;20294;-79
2022/10/15 01:25:04;;;;;;;9.30;9.00;;;13.90;99.90;;;;;;5097105;28;20233;-79
2022/10/15 01:27:39;;;;;;;9.53;9.23;;;13.90;99.90;;;;;;5096844;28;20229;-79
2022/10/15 01:30:23;;;;;;;9.30;9.00;;;13.90;99.90;;;;;;5087785;28;20233;-79
2022/10/15 01:33:25;;;;;;;9.40;9.10;;;13.90;99.90;;;;;;5077303;28;20218;-79
2022/10/15 01:35:59;;;;;;;9.47;9.17;;;13.90;99.90;;;;;;5062476;28;20229;-79
2022/10/15 01:38:39;;;;;;;9.30;9.00;;;13.90;99.90;;;;;;5077118;28;20230;-79
2022/10/15 01:41:12;;;;;;;9.50;9.20;;;13.90;99.90;;;;;;5095326;28;20239;-79
2022/10/15 01:43:47;;;;;;;9.40;9.10;;;13.90;99.90;;;;;;5097041;28;20264;-79
2022/10/15 01:46:21;;;;;;;9.30;9.00;;;13.90;99.90;;;;;;5096772;28;20228;-79
2022/10/15 01:48:53;;;;;;;9.40;9.10;;;13.90;99.90;;;;;;5096880;28;20229;-79
2022/10/15 01:51:24;;;;;;;9.17;8.87;;;13.90;99.90;;;;;;5097105;28;20317;-79
2022/10/15 01:53:53;;;;;;;9.37;9.07;;;13.90;99.90;;;;;;5100070;28;20237;-79
2022/10/15 01:56:24;;;;;;;9.40;9.10;;;13.90;99.90;;;;;;5096207;28;20332;-79
2022/10/15 01:58:55;;;;;;;9.40;9.10;;;13.90;99.90;;;;;;5097176;28;20234;-78
2022/10/15 02:01:24;;;;;;;9.47;9.17;;;13.90;99.90;;;;;;5098197;28;20229;-78
2022/10/15 02:03:53;;;;;;;9.30;9.00;;;13.90;99.90;;;;;;5093997;28;20257;-79
2022/10/15 02:06:27;;;;;;;9.30;9.00;;;13.90;99.90;;;;;;5091580;28;20268;-78
2022/10/15 02:09:09;;;;;;;9.30;9.00;;;13.90;99.90;;;;;;5084895;28;20230;-79
2022/10/15 02:11:56;;;;;;;9.40;9.10;;;13.90;99.90;;;;;;5056564;28;20229;-79
2022/10/15 02:14:33;;;;;;;9.30;9.00;;;13.90;99.90;;;;;;5056968;28;20265;-79
2022/10/15 02:17:08;;;;;;;9.40;9.10;;;13.90;99.90;;;;;;5059465;28;20238;-79
2022/10/15 02:19:44;;;;;;;9.20;8.90;;;13.90;99.90;;;;;;5059750;28;20282;-79
2022/10/15 02:22:16;;;;;;;9.30;9.00;;;13.90;99.90;;;;;;5060082;28;20312;-79
2022/10/15 02:24:52;;;;;;;9.30;9.00;;;13.90;99.90;;;;;;5059270;28;20250;-79
2022/10/15 02:27:21;;;;;;;9.40;9.10;;;13.90;99.90;;;;;;5059552;28;20312;-79
2022/10/15 02:29:51;;;;;;;9.10;8.80;;;13.80;99.90;;;;;;5059787;28;20237;-78
2022/10/15 02:32:22;;;;;;;9.20;8.90;;;13.90;99.90;;;;;;5059645;28;20285;-79
2022/10/15 02:34:51;;;;;;;9.50;9.20;;;13.90;99.90;;;;;;5059395;28;20231;-79
2022/10/15 02:37:23;;;;;;;9.47;9.17;;;13.90;99.90;;;;;;5058971;28;20333;-79
2022/10/15 02:39:50;;;;;;;9.50;9.20;;;13.90;99.90;;;;;;5059964;28;20231;-79
2022/10/15 02:42:19;;;;;;;9.30;9.00;;;13.90;99.90;;;;;;5059327;28;20257;-79
2022/10/15 02:44:46;;;;;;;9.50;9.20;;;13.90;99.90;;;;;;5059090;28;20239;-79
2022/10/15 02:47:14;;;;;;;9.33;9.03;;;13.90;99.90;;;;;;5058782;28;20239;-78
2022/10/15 02:49:43;;;;;;;9.57;9.27;;;13.90;99.90;;;;;;5059356;28;20231;-79
2022/10/15 02:52:10;;;;;;;9.30;9.00;;;13.90;99.90;;;;;;5059206;28;20238;-78
2022/10/15 02:54:38;;;;;;;9.50;9.20;;;13.90;99.90;;;;;;5059380;28;20227;-79
2022/10/15 02:57:05;;;;;;;9.40;9.10;;;13.90;99.90;;;;;;5058980;28;20239;-78
2022/10/15 02:59:33;;;;;;;9.50;9.20;;;13.90;99.90;;;;;;5059069;28;20223;-79
2022/10/15 03:02:00;;;;;;;9.33;9.03;;;13.90;99.90;;;;;;5059214;28;20235;-79
2022/10/15 03:04:28;;;;;;;9.40;9.10;;;13.90;99.90;;;;;;5071060;28;20221;-79
2022/10/15 03:06:57;;;;;;;9.47;9.17;;;13.90;99.90;;;;;;5080037;28;20238;-80
2022/10/15 03:09:24;;;;;;;9.70;9.40;;;13.90;99.90;;;;;;5079496;28;20275;-78
2022/10/15 03:11:51;;;;;;;9.40;9.10;;;13.90;99.90;;;;;;5079669;28;20241;-78
2022/10/15 03:14:19;;;;;;;9.50;9.20;;;13.90;99.90;;;;;;5080374;28;20226;-78
2022/10/15 03:16:46;;;;;;;9.40;9.10;;;13.90;99.90;;;;;;5078214;28;20231;-78
2022/10/15 03:19:14;;;;;;;9.20;8.90;;;14.00;99.90;;;;;;5079634;28;20214;-79
2022/10/15 03:21:41;;;;;;;9.20;8.90;;;14.00;99.90;;;;;;5079170;28;20283;-79
2022/10/15 03:24:10;;;;;;;9.43;9.13;;;14.00;99.90;;;;;;5079890;28;20237;-79
2022/10/15 03:26:38;;;;;;;9.30;9.00;;;14.00;99.90;;;;;;5076668;28;20223;-79
2022/10/15 03:29:05;;;;;;;9.27;8.97;;;14.00;99.90;;;;;;5078106;28;20254;-79
2022/10/15 03:31:32;;;;;;;9.50;9.20;;;13.90;99.90;;;;;;5077257;28;20237;-79
2022/10/15 03:34:00;;;;;;;9.20;8.90;;;13.90;99.90;;;;;;5076491;28;20231;-79
2022/10/15 03:36:27;;;;;;;9.33;9.03;;;13.90;99.90;;;;;;5060649;28;20373;-79
2022/10/15 03:38:55;;;;;;;9.30;9.00;;;13.90;99.90;;;;;;5060157;28;20226;-79
2022/10/15 03:41:24;;;;;;;9.27;8.97;;;14.00;99.90;;;;;;5060506;28;20265;-79
2022/10/15 03:43:51;;;;;;;9.40;9.10;;;13.90;99.90;;;;;;5059000;28;20231;-80
2022/10/15 03:46:19;;;;;;;9.30;9.00;;;14.00;99.90;;;;;;5058129;28;20226;-78
2022/10/15 03:48:50;;;;;;;9.20;8.90;;;14.00;99.90;;;;;;5058679;28;20231;-78
2022/10/15 03:51:17;;;;;;;9.20;8.90;;;14.00;99.90;;;;;;5058807;28;20231;-78
2022/10/15 03:53:45;;;;;;;9.27;8.97;;;14.00;99.90;;;;;;5058863;28;20243;-78
2022/10/15 03:56:12;;;;;;;9.10;8.80;;;13.90;99.90;;;;;;5057907;28;20313;-79
2022/10/15 03:58:41;;;;;;;9.20;8.90;;;14.00;99.90;;;;;;5062772;28;20313;-78
2022/10/15 04:01:10;;;;;;;9.30;9.00;;;13.90;99.90;;;;;;5078677;28;20238;-80
2022/10/15 04:03:38;;;;;;;9.30;9.00;;;14.00;99.90;;;;;;5078477;28;20245;-78
2022/10/15 04:06:06;;;;;;;9.03;8.73;;;14.00;99.90;;;;;;5077326;28;20226;-78
2022/10/15 04:08:34;;;;;;;9.07;8.77;;;14.00;99.90;;;;;;5078300;28;20226;-78
2022/10/15 04:11:02;;;;;;;9.20;8.90;;;14.00;99.90;;;;;;5078714;28;20238;-78
2022/10/15 04:13:30;;;;;;;9.30;9.00;;;14.00;99.90;;;;;;5072123;28;20225;-79
2022/10/15 04:16:04;;;;;;;9.20;8.90;;;13.90;99.90;;;;;;5057149;28;20244;-78
2022/10/15 04:18:31;;;;;;;8.97;8.67;;;14.00;99.90;;;;;;5059982;28;20312;-78
2022/10/15 04:20:59;;;;;;;9.07;8.77;;;14.00;99.90;;;;;;5062071;28;20227;-80
2022/10/15 04:23:27;;;;;;;8.90;8.60;;;14.00;99.90;;;;;;5059704;28;20231;-78
2022/10/15 04:25:59;;;;;;;9.20;8.90;;;14.00;99.90;;;;;;5057215;28;20227;-78
2022/10/15 04:28:27;;;;;;;9.30;9.00;;;14.00;99.90;;;;;;5071374;28;20364;-79
2022/10/15 04:30:57;;;;;;;9.00;8.70;;;14.00;99.90;;;;;;5058816;28;20238;-78
2022/10/15 04:33:27;;;;;;;9.20;8.90;;;14.00;99.90;;;;;;5057881;28;20698;-77
2022/10/15 04:36:05;;;;;;;9.20;8.90;;;14.00;99.90;;;;;;5056988;28;20246;-78
2022/10/15 04:38:32;;;;;;;9.10;8.80;;;14.00;99.90;;;;;;5058077;28;20219;-78
2022/10/15 04:41:02;;;;;;;9.17;8.87;;;14.00;99.90;;;;;;5057539;28;20798;-78
2022/10/15 04:43:29;;;;;;;9.30;9.00;;;14.00;99.90;;;;;;5057871;28;20258;-78
2022/10/15 04:45:58;;;;;;;9.10;8.80;;;14.00;99.90;;;;;;5057735;28;20227;-79
2022/10/15 04:48:29;;;;;;;9.00;8.70;;;14.00;99.90;;;;;;5058043;28;20234;-79
2022/10/15 04:51:03;;;;;;;9.17;8.87;;;14.00;99.90;;;;;;5069878;28;20281;-80
2022/10/15 04:53:31;;;;;;;9.20;8.90;;;14.00;99.90;;;;;;5079444;28;20236;-80
2022/10/15 04:56:02;;;;;;;9.27;8.97;;;14.00;99.90;;;;;;5078441;28;20261;-80
2022/10/15 04:58:31;;;;;;;9.03;8.73;;;14.00;99.90;;;;;;5078811;28;20230;-79
2022/10/15 05:01:02;;;;;;;8.80;8.50;;;14.00;99.90;;;;;;5078878;28;20240;-78
2022/10/15 05:03:32;;;;;;;9.10;8.80;;;14.00;99.90;;;;;;5078173;28;20298;-78
2022/10/15 05:06:03;;;;;;;9.40;9.10;;;14.10;99.90;;;;;;5077848;28;20245;-78
2022/10/15 05:08:32;;;;;;;9.23;8.93;;;14.00;99.90;;;;;;5079153;28;20226;-79
2022/10/15 05:11:02;;;;;;;9.40;9.10;;;14.10;99.90;;;;;;5077727;28;20321;-79
2022/10/15 05:13:29;;;;;;;9.20;8.90;;;14.10;99.90;;;;;;5084432;28;20604;-78
2022/10/15 05:15:57;;;;;;;9.10;8.80;;;14.10;99.90;;;;;;5082747;28;20290;-79
2022/10/15 05:18:25;;;;;;;8.93;8.63;;;14.10;99.90;;;;;;5088086;28;20313;-79
2022/10/15 05:20:54;;;;;;;8.90;8.60;;;14.10;99.90;;;;;;5080985;28;20226;-79
2022/10/15 05:23:21;;;;;;;9.20;8.90;;;14.10;99.90;;;;;;5080196;28;20230;-79
2022/10/15 05:25:49;;;;;;;9.23;8.93;;;14.10;99.90;;;;;;5079546;28;20264;-80
2022/10/15 05:28:16;;;;;;;9.13;8.83;;;14.10;99.90;;;;;;5078426;28;20276;-79
2022/10/15 05:30:44;;;;;;;9.20;8.90;;;14.10;99.90;;;;;;5079515;28;20233;-79
2022/10/15 05:33:11;;;;;;;9.47;9.17;;;14.10;99.90;;;;;;5080207;28;20257;-77
2022/10/15 05:35:39;;;;;;;9.70;9.40;;;14.10;99.90;;;;;;5091331;28;20313;-79
2022/10/15 05:38:08;;;;;;;9.60;9.30;;;14.20;99.90;;;;;;5092373;28;20325;-80
2022/10/15 05:40:36;;;;;;;9.47;9.17;;;14.20;99.90;;;;;;5076877;28;20322;-79
2022/10/15 05:43:03;;;;;;;9.67;9.37;;;14.20;99.90;;;;;;5087086;28;20222;-79
2022/10/15 05:45:31;;;;;;;9.70;9.40;;;14.20;99.90;;;;;;5098207;28;20225;-79
2022/10/15 05:47:58;;;;;;;9.53;9.23;;;14.20;99.90;;;;;;5098474;28;20223;-79
2022/10/15 05:50:26;;;;;;;9.50;9.20;;;14.20;99.90;;;;;;5101544;28;20289;-79
2022/10/15 05:52:55;;;;;;;9.30;9.00;;;14.20;99.90;;;;;;5103148;28;20287;-79
2022/10/15 05:55:24;;;;;;;9.20;8.90;;;14.20;99.90;;;;;;5101629;28;20239;-79
2022/10/15 05:57:51;;;;;;;9.30;9.00;;;14.20;99.90;;;;;;5101783;28;20229;-77
2022/10/15 06:00:19;;;;;;;9.40;9.10;;;14.30;99.90;;;;;;5103626;28;20270;-79
2022/10/15 06:02:47;;;;;;;9.40;9.10;;;14.30;99.90;;;;;;5102261;28;20236;-79
2022/10/15 06:05:15;;;;;;;9.23;8.93;;;14.30;99.90;;;;;;5101324;28;20305;-79
2022/10/15 06:07:42;;;;;;;9.20;8.90;;;14.30;99.90;;;;;;5101422;28;20232;-79
2022/10/15 06:10:10;;;;;;;9.10;8.80;;;14.30;99.90;;;;;;5102009;28;20237;-79
2022/10/15 06:12:39;;;;;;;9.20;8.90;;;14.30;99.90;;;;;;5102106;28;20244;-79
2022/10/15 06:15:08;;;;;;;9.40;9.10;;;14.30;99.90;;;;;;5101024;28;20221;-78
2022/10/15 06:17:35;;;;;;;9.30;9.00;;;14.30;99.90;;;;;;5101081;28;20232;-79
2022/10/15 06:20:03;;;;;;;9.00;8.70;;;14.40;99.90;;;;;;5101295;28;20248;-78
2022/10/15 06:22:31;;;;;;;9.03;8.73;;;14.40;99.90;;;;;;5103894;28;20329;-81
2022/10/15 06:24:59;;;;;;;9.00;8.70;;;14.40;99.90;;;;;;5100790;28;20329;-78
2022/10/15 06:27:27;;;;;;;9.10;8.80;;;14.40;99.90;;;;;;5100914;28;20264;-79
2022/10/15 06:29:56;;;;;;;9.20;8.90;;;14.50;99.90;;;;;;5101858;28;20294;-79
2022/10/15 06:32:23;;;;;;;9.10;8.80;;;14.50;99.90;;;;;;5083564;28;20233;-78
2022/10/15 06:34:51;;;;;;;8.87;8.57;;;14.50;99.90;;;;;;5094804;28;20225;-78
2022/10/15 06:37:18;;;;;;;9.00;8.70;;;14.60;99.90;;;;;;5094139;28;20777;-79
2022/10/15 06:39:46;;;;;;;9.00;8.70;;;14.60;99.90;;;;;;5101473;28;20236;-79
2022/10/15 06:42:14;;;;;;;9.10;8.80;;;14.60;99.90;;;;;;5100496;28;20240;-79
2022/10/15 06:44:41;;;;;;;9.00;8.70;;;14.70;99.90;;;;;;5100039;28;20241;-80
2022/10/15 06:47:10;;;;;;;9.30;9.00;;;14.70;99.90;;;;;;5101991;28;20229;-80
2022/10/15 06:49:38;;;;;;;9.10;8.80;;;14.80;99.90;;;;;;5102009;28;20293;-79
2022/10/15 06:52:06;;;;;;;9.00;8.70;;;14.80;99.90;;;;;;5101533;28;20232;-78
2022/10/15 06:54:33;;;;;;;8.95;8.65;;;14.90;99.90;;;;;;5106668;28;20237;-79
2022/10/15 06:57:00;;;;;;;9.23;8.93;;;14.90;99.90;;;;;;5103586;28;20312;-79
2022/10/15 06:59:28;;;;;;;9.03;8.73;;;15.00;99.90;;;;;;5084570;28;20230;-79
2022/10/15 07:01:55;;;;;;;8.95;8.65;;;15.00;99.90;;;;;;5081126;28;20234;-80
2022/10/15 07:04:25;;;;;;;9.20;8.90;;;15.10;99.90;;;;;;5080609;28;20215;-79
2022/10/15 07:06:52;;;;;;;9.20;8.90;;;15.20;99.90;;;;;;5079297;28;20226;-79
2022/10/15 07:09:20;;;;;;;9.20;8.90;;;15.20;99.90;;;;;;5080452;28;20238;-79
2022/10/15 07:11:47;;;;;;;9.18;8.88;;;15.30;99.90;;;;;;5082656;28;20288;-78
2022/10/15 07:14:15;;;;;;;9.05;8.75;;;15.30;99.90;;;;;;5087342;28;20367;-79
2022/10/15 07:16:42;;;;;;;8.95;8.70;;;15.30;99.90;;;;;;5096149;28;20243;-77
2022/10/15 07:19:10;;;;;;;8.90;8.60;;;15.40;99.90;;;;;;5106400;27;20312;-79
2022/10/15 07:21:39;;;;;;;9.10;8.80;;;15.40;99.90;;;;;;5095870;28;20329;-78
2022/10/15 07:24:07;;;;;;;8.90;8.70;;;15.50;99.90;;;;;;5101921;28;20232;-79
2022/10/15 07:26:34;;;;;;;9.10;8.80;;;15.50;99.90;;;;;;5100658;28;20237;-81
2022/10/15 07:29:03;;;;;;;9.07;8.77;;;15.60;99.90;;;;;;5096540;28;20227;-79
2022/10/15 07:31:30;;;;;;;9.13;8.82;;;15.60;99.90;;;;;;5096228;28;20296;-79
2022/10/15 07:33:58;;;;;;;9.07;8.77;;;15.70;99.90;;;;;;5090433;28;20286;-80
2022/10/15 07:36:26;;;;;;;8.60;8.40;;;15.70;99.90;;;;;;5097417;28;20232;-80
2022/10/15 07:38:55;;;;;;;8.20;8.00;;;15.80;99.90;;;;;;5082842;28;20236;-80
2022/10/15 07:41:22;;;;;;;8.50;8.30;;;15.80;99.90;;;;;;5079555;28;20240;-80
2022/10/15 07:43:52;;;;;;;8.20;8.00;;;15.90;99.90;;;;;;5080091;28;20313;-81
2022/10/15 07:46:20;;;;;;;8.30;8.10;;;15.90;99.90;;;;;;5077801;28;20330;-81
2022/10/15 07:48:47;;;;;;;8.07;7.88;;;15.90;99.90;;;;;;5079022;28;20293;-79
2022/10/15 07:51:15;;;;;;;8.50;8.30;;;15.90;99.90;;;;;;5086567;28;20236;-80
2022/10/15 07:53:43;;;;;;;8.90;8.60;;;15.90;99.90;;;;;;5084586;28;20230;-82
2022/10/15 07:56:18;;;;;;;8.50;8.30;;;16.00;99.90;;;;;;5085757;28;20269;-79
2022/10/15 07:58:50;;;;;;;8.68;8.48;;;16.00;99.90;;;;;;5094996;28;20287;-80
2022/10/15 08:01:20;;;;;;;8.50;8.30;;;16.00;99.90;;;;;;5099587;28;20261;-79
2022/10/15 08:03:48;;;;;;;8.63;8.43;;;16.00;99.90;;;;;;5099474;28;20234;-80
2022/10/15 08:06:17;;;;;;;8.90;8.60;;;15.90;99.90;;;;;;5097796;28;20248;-80
2022/10/15 08:08:46;;;;;;;8.93;8.63;;;15.90;99.90;;;;;;5083350;28;20230;-81
2022/10/15 08:11:17;;;;;;;9.00;8.70;;;15.90;99.90;;;;;;5097958;28;20233;-80
2022/10/15 08:13:47;;;;;;;8.80;8.50;;;15.90;99.90;;;;;;5080962;28;20244;-80
2022/10/15 08:16:18;;;;;;;9.27;8.98;;;15.90;99.90;;;;;;5087788;28;20303;-80
2022/10/15 08:18:46;;;;;;;8.90;8.60;;;15.90;99.90;;;;;;5090315;28;20230;-80
2022/10/15 08:21:13;;;;;;;9.02;8.73;;;15.90;99.90;;;;;;5085437;28;20238;-80
2022/10/15 08:23:41;;;;;;;9.00;8.70;;;16.00;99.90;;;;;;5091297;28;20295;-80
2022/10/15 08:26:08;;;;;;;9.02;8.73;;;15.90;99.90;;;;;;5081596;28;20246;-81
2022/10/15 08:28:37;;;;;;;9.10;8.80;;;16.00;99.90;;;;;;5080147;28;20246;-81
2022/10/15 08:31:05;;;;;;;9.00;8.70;;;16.00;99.90;;;;;;5079356;28;20236;-81
2022/10/15 08:33:34;;;;;;;9.07;8.77;;;16.00;99.90;;;;;;5079891;28;20230;-80
2022/10/15 08:36:01;;;;;;;8.75;8.55;;;16.00;99.90;;;;;;5079382;28;20292;-80
2022/10/15 08:38:31;;;;;;;9.13;8.82;;;16.10;99.90;;;;;;5078790;28;20293;-80
2022/10/15 08:41:01;;;;;;;9.00;8.70;;;16.00;99.90;;;;;;5079011;28;20286;-80
2022/10/15 08:43:36;;;;;;;8.63;8.43;;;16.10;99.90;;;;;;5078700;28;20237;-80
2022/10/15 08:46:10;;;;;;;8.63;8.43;;;16.00;99.90;;;;;;5078303;28;20230;-80
2022/10/15 08:48:43;;;;;;;8.55;8.35;;;16.10;99.90;;;;;;5079743;28;20661;-80
2022/10/15 08:51:14;;;;;;;8.30;8.10;;;16.10;99.90;;;;;;5079443;28;20230;-80
2022/10/15 08:53:48;;;;;;;8.02;7.82;;;16.00;99.90;;;;;;5078648;28;20265;-81
2022/10/15 08:56:21;;;;;;;8.20;8.00;;;16.00;99.90;;;;;;5078156;28;20222;-80
2022/10/15 08:59:00;;;;;;;8.20;8.00;;;16.00;99.90;;;;;;5079232;28;20234;-80
2022/10/15 09:01:34;;;;;;;8.18;7.97;;;16.00;99.90;;;;;;5079420;28;20233;-81
2022/10/15 09:04:18;;;;;;;8.25;8.05;;;16.00;99.90;;;;;;5078888;28;20299;-81
2022/10/15 09:06:47;;;;;;;8.10;7.90;;;16.00;99.90;;;;;;5084779;28;20242;-80
2022/10/15 09:09:22;;;;;;;8.32;8.13;;;16.10;99.90;;;;;;5090960;28;20249;-80
2022/10/15 09:11:59;;;;;;;8.30;8.10;;;16.20;99.90;;;;;;5092117;28;20229;-81
2022/10/15 09:14:32;;;;;;;8.30;8.10;;;16.20;99.90;;;;;;5079648;28;20285;-80
2022/10/15 09:17:05;;;;;;;8.00;7.80;;;16.30;99.90;;;;;;5078694;28;20357;-81
2022/10/15 09:19:35;;;;;;;8.30;8.10;;;16.30;99.90;;;;;;5078860;28;20240;-81
2022/10/15 09:22:03;;;;;;;8.38;8.18;;;16.30;99.90;;;;;;5079160;28;20238;-81
2022/10/15 09:24:31;;;;;;;8.10;7.90;;;16.30;99.90;;;;;;5085202;28;20233;-81
2022/10/15 09:27:08;;;;;;;8.35;8.15;;;16.30;99.90;;;;;;5079227;28;20237;-80
2022/10/15 09:29:45;;;;;;;8.18;7.97;;;16.40;99.90;;;;;;5086291;28;20307;-79
2022/10/15 09:32:20;;;;;;;8.32;8.13;;;16.50;99.90;;;;;;5079066;28;20293;-80
2022/10/15 09:34:53;;;;;;;8.18;7.97;;;16.60;99.90;;;;;;5077259;28;20239;-79
2022/10/15 09:37:27;;;;;;;8.15;7.95;;;16.70;99.90;;;;;;5078592;28;20317;-79
2022/10/15 09:40:27;;;;;;;8.30;8.10;;;16.80;99.90;;;;;;5078187;28;20245;-79
2022/10/15 09:42:57;;;;;;;8.20;8.00;;;16.90;99.90;;;;;;5082663;28;20252;-79
2022/10/15 09:45:26;;;;;;;8.30;8.10;;;16.80;99.90;;;;;;5078039;28;20230;-79
2022/10/15 09:48:02;;;;;;;8.43;8.23;;;16.80;99.90;;;;;;5077964;28;20741;-79
2022/10/15 09:50:41;;;;;;;8.23;8.02;;;16.90;99.90;;;;;;5077760;28;20238;-79
2022/10/15 09:53:20;;;;;;;8.30;8.10;;;17.00;99.90;;;;;;5077474;28;20229;-79
2022/10/15 09:55:52;;;;;;;8.10;7.90;;;17.00;99.90;;;;;;5077453;28;20328;-79
2022/10/15 09:58:26;;;;;;;8.20;8.00;;;17.10;99.90;;;;;;5076802;28;20226;-79
2022/10/15 10:01:01;;;;;;;8.30;8.10;;;17.00;99.90;;;;;;5068273;28;20238;-78
2022/10/15 10:03:32;;;;;;;8.10;7.90;;;17.00;99.90;;;;;;5078615;28;20234;-81
2022/10/15 10:06:11;;;;;;;8.02;7.82;;;17.00;99.90;;;;;;5076884;28;20238;-81
2022/10/15 10:08:41;;;;;;;8.15;7.95;;;17.00;99.90;;;;;;5078035;28;20235;-81
2022/10/15 10:11:11;;;;;;;8.40;8.20;;;17.00;99.90;;;;;;5079477;28;20237;-80
2022/10/15 10:13:45;;;;;;;8.60;8.40;;;17.00;99.90;;;;;;5078199;28;20269;-80
2022/10/15 10:16:17;;;;;;;8.45;8.25;;;17.10;99.90;;;;;;5078277;28;20243;-80
2022/10/15 10:19:03;;;;;;;8.38;8.18;;;17.10;99.90;;;;;;5076801;28;20230;-80
2022/10/15 10:21:32;;;;;;;8.40;8.20;;;17.10;99.90;;;;;;5079273;28;20256;-79
2022/10/15 10:24:22;;;;;;;8.43;8.23;;;17.20;99.90;;;;;;5083451;28;20716;-79
2022/10/15 10:26:50;;;;;;;8.40;8.20;;;17.20;99.90;;;;;;5097958;28;20329;-80
2022/10/15 10:29:20;;;;;;;8.30;8.10;;;17.20;99.90;;;;;;5085645;28;20725;-80
2022/10/15 10:31:51;;;;;;;8.45;8.25;;;17.30;99.90;;;;;;5082577;28;20627;-80
2022/10/15 10:34:25;;;;;;;8.65;8.45;;;17.40;99.90;;;;;;5092753;28;20218;-77
2022/10/15 10:36:54;;;;;;;8.88;8.60;;;17.40;99.90;;;;;;5115849;27;20292;-76
2022/10/15 10:39:27;;;;;;;9.10;8.80;;;17.40;99.90;;;;;;5120440;28;20205;-80
2022/10/15 10:41:58;;;;;;;8.93;8.63;;;17.50;99.90;;;;;;5093897;28;20259;-77
2022/10/15 10:44:31;;;;;;;8.70;8.50;;;17.60;99.90;;;;;;5083791;28;20232;-77
2022/10/15 10:47:14;;;;;;;9.00;8.70;;;17.70;99.90;;;;;;5117485;28;20237;-80
2022/10/15 10:49:44;;;;;;;8.70;8.50;;;17.90;99.90;;;;;;5098303;28;20281;-79
2022/10/15 10:52:26;;;;;;;9.15;8.85;;;17.90;99.90;;;;;;5103556;28;20240;-79
2022/10/15 10:55:02;;;;;;;9.50;9.20;;;18.00;99.90;;;;;;5094334;28;20226;-80
2022/10/15 10:57:43;;;;;;;9.45;9.15;;;18.10;99.90;;;;;;5091156;28;20253;-81
2022/10/15 11:00:18;;;;;;;9.77;9.48;;;18.30;99.90;;;;;;5095801;28;20205;-80
2022/10/15 11:02:47;;;;;;;9.95;9.65;;;18.30;99.90;;;;;;5095771;28;20225;-79
2022/10/15 11:05:17;;;;;;;9.90;9.60;;;18.30;99.90;;;;;;5090346;28;20242;-80
2022/10/15 11:07:53;;;;;;;10.10;9.80;;;18.40;99.90;;;;;;5086172;28;20345;-81
2022/10/15 11:10:26;;;;;;;10.13;9.82;;;18.40;99.90;;;;;;5086514;28;20231;-80
2022/10/15 11:13:18;;;;;;;9.88;9.57;;;18.50;99.90;;;;;;5085745;28;20301;-80
2022/10/15 11:15:54;;;;;;;9.50;9.20;;;18.70;99.90;;;;;;5087126;28;20254;-78
2022/10/15 11:18:37;;;;;;;9.40;9.10;;;18.80;99.90;;;;;;5084681;28;20234;-78
2022/10/15 11:21:16;;;;;;;9.38;9.07;;;18.90;99.90;;;;;;5083693;28;20232;-79
2022/10/15 11:23:59;;;;;;;9.40;9.10;;;18.90;99.90;;;;;;5082995;28;20293;-78
2022/10/15 11:26:51;;;;;;;9.40;9.10;;;18.70;99.90;;;;;;5083814;28;20245;-79
2022/10/15 11:29:30;;;;;;;9.30;9.00;;;18.60;99.90;;;;;;5084159;28;20272;-78
2022/10/15 11:32:12;;;;;;;9.23;8.93;;;18.50;99.90;;;;;;5083557;28;20234;-79
2022/10/15 11:34:57;;;;;;;9.20;8.90;;;18.40;99.90;;;;;;5083248;28;20289;-79
2022/10/15 11:37:38;;;;;;;9.32;9.02;;;18.30;99.90;;;;;;5084616;28;20297;-79
2022/10/15 11:40:17;;;;;;;9.48;9.18;;;18.20;99.90;;;;;;5091832;28;20297;-79
2022/10/15 11:42:54;;;;;;;9.40;9.10;;;18.00;99.90;;;;;;5094373;28;20290;-79
2022/10/15 11:45:39;;;;;;;9.05;8.77;;;18.00;99.90;;;;;;5092242;28;20226;-78
2022/10/15 11:48:15;;;;;;;9.30;9.00;;;18.00;99.90;;;;;;5088728;28;20258;-79
2022/10/15 11:50:49;;;;;;;9.10;8.80;;;18.10;99.90;;;;;;5089473;28;20222;-79
2022/10/15 11:53:49;;;;;;;8.90;8.70;;;18.20;99.90;;;;;;5091221;28;20222;-79
2022/10/15 11:56:25;;;;;;;9.05;8.75;;;18.30;99.90;;;;;;5060892;28;20289;-78
2022/10/15 11:58:57;;;;;;;9.18;8.88;;;18.30;99.90;;;;;;5093894;28;20332;-79
2022/10/15 12:01:33;;;;;;;8.85;8.63;;;18.20;99.90;;;;;;5094054;28;20223;-79
2022/10/15 12:04:08;;;;;;;8.73;8.52;;;18.20;99.90;;;;;;5093023;28;20229;-78
2022/10/15 12:06:43;;;;;;;9.02;8.75;;;18.20;99.90;;;;;;5073172;28;20233;-78
2022/10/15 12:09:18;;;;;;;8.60;8.40;;;18.20;99.90;;;;;;5093023;28;20237;-78
2022/10/15 12:11:53;;;;;;;8.80;8.60;;;18.20;99.90;;;;;;5093958;28;20281;-79
2022/10/15 12:14:31;;;;;;;8.70;8.50;;;18.10;99.90;;;;;;5093993;28;20276;-79
2022/10/15 12:17:11;;;;;;;8.93;8.65;;;18.10;99.90;;;;;;5094364;28;20222;-79
2022/10/15 12:19:44;;;;;;;9.00;8.70;;;18.20;99.90;;;;;;5094713;28;20320;-78
2022/10/15 12:22:13;;;;;;;9.02;8.73;;;18.10;99.90;;;;;;5094315;28;20226;-78
2022/10/15 12:24:53;;;;;;;9.00;8.70;;;18.10;99.90;;;;;;5089096;28;20219;-79
2022/10/15 12:27:33;;;;;;;8.65;8.45;;;18.20;99.90;;;;;;5080444;28;20251;-79
2022/10/15 12:30:23;;;;;;;8.63;8.43;;;18.20;99.90;;;;;;5080589;28;20342;-79
2022/10/15 12:32:52;;;;;;;8.55;8.35;;;18.20;99.90;;;;;;5080125;28;20248;-78
2022/10/15 12:35:34;;;;;;;8.70;8.50;;;18.20;99.90;;;;;;5079181;28;20230;-80
2022/10/15 12:38:19;;;;;;;8.60;8.40;;;18.20;99.90;;;;;;5079805;28;20241;-80
2022/10/15 12:40:56;;;;;;;8.70;8.50;;;18.20;99.90;;;;;;5081127;28;20240;-78
2022/10/15 12:43:24;;;;;;;9.00;8.70;;;18.20;99.90;;;;;;5080137;28;20236;-78
2022/10/15 12:45:54;;;;;;;9.20;8.90;;;18.00;99.90;;;;;;5078723;28;20222;-77
2022/10/15 12:48:44;;;;;;;8.80;8.60;;;17.90;99.90;;;;;;5075285;28;20238;-78
2022/10/15 12:51:39;;;;;;;8.95;8.65;;;17.90;99.90;;;;;;5084186;28;20320;-77
2022/10/15 12:54:38;;;;;;;8.95;8.65;;;18.10;99.90;;;;;;5090448;28;20228;-79
2022/10/15 12:58:00;;;;;;;8.60;8.40;;;18.20;99.90;;;;;;5107673;28;20218;-79
2022/10/15 13:00:37;;;;;;;8.48;8.27;;;18.30;99.90;;;;;;5097745;28;20245;-78
2022/10/15 13:03:18;;;;;;;8.60;8.40;;;18.40;99.90;;;;;;5083862;28;20328;-79
2022/10/15 13:05:46;;;;;;;8.57;8.38;;;18.50;99.90;;;;;;5084244;28;20226;-79
2022/10/15 13:08:21;;;;;;;8.60;8.40;;;18.50;99.90;;;;;;5080119;28;20230;-80
2022/10/15 13:10:55;;;;;;;8.98;8.68;;;18.40;99.90;;;;;;5079411;28;20320;-81
2022/10/15 13:13:26;;;;;;;8.43;8.23;;;18.50;99.90;;;;;;5079868;28;20234;-78